sensor_id;sensor_type;location;lat;lon;timestamp;temperature;humidity
25640;DHT22;13497;48.322;16.204;2024-03-06T00:00:00;6.50;99.90
25640;DHT22;13497;48.322;16.204;2024-03-06T00:02:26;6.50;99.90
25640;DHT22;13497;48.322;16.204;2024-03-06T00:04:51;6.50;99.90
25640;DHT22;13497;48.322;16.204;2024-03-06T00:07:17;6.50;99.90
25640;DHT22;13497;48.322;16.204;2024-03-06T00:09:42;6.60;99.90
25640;DHT22;13497;48.322;16.204;2024-03-06T00:12:08;6.60;99.90
25640;DHT22;13497;48.322;16.204;2024-03-06T00:14:34;6.50;99.90
25640;DHT22;13497;48.322;16.204;2024-03-06T00:17:02;6.40;99.90
25640;DHT22;13497;48.322;16.204;2024-03-06T00:19:30;6.50;99.90
25640;DHT22;13497;48.322;16.204;2024-03-06T00:21:56;6.50;99.90
25640;DHT22;13497;48.322;16.204;2024-03-06T00:24:22;6.40;99.90
25640;DHT22;13497;48.322;16.204;2024-03-06T00:26:48;6.40;99.90
25640;DHT22;13497;48.322;16.204;2024-03-06T00:29:14;6.40;99.90
25640;DHT22;13497;48.322;16.204;2024-03-06T00:31:44;6.40;99.90
25640;DHT22;13497;48.322;16.204;2024-03-06T00:34:11;6.50;99.90
25640;DHT22;13497;48.322;16.204;2024-03-06T00:36:40;6.50;99.90
25640;DHT22;13497;48.322;16.204;2024-03-06T00:39:06;6.60;99.90
25640;DHT22;13497;48.322;16.204;2024-03-06T00:41:34;6.60;99.90
25640;DHT22;13497;48.322;16.204;2024-03-06T00:44:00;6.70;99.90
25640;DHT22;13497;48.322;16.204;2024-03-06T00:46:26;6.70;99.90
25640;DHT22;13497;48.322;16.204;2024-03-06T00:48:51;6.70;99.90
25640;DHT22;13497;48.322;16.204;2024-03-06T00:51:17;6.70;99.90
25640;DHT22;13497;48.322;16.204;2024-03-06T00:53:43;6.70;99.90
25640;DHT22;13497;48.322;16.204;2024-03-06T00:56:09;6.70;99.90
25640;DHT22;13497;48.322;16.204;2024-03-06T00:58:35;6.80;99.90
25640;DHT22;13497;48.322;16.204;2024-03-06T01:01:01;6.90;99.90
25640;DHT22;13497;48.322;16.204;2024-03-06T01:03:26;6.90;99.90
25640;DHT22;13497;48.322;16.204;2024-03-06T01:05:52;6.90;99.90
25640;DHT22;13497;48.322;16.204;2024-03-06T01:08:19;6.90;99.90
25640;DHT22;13497;48.322;16.204;2024-03-06T01:10:44;6.80;99.90
25640;DHT22;13497;48.322;16.204;2024-03-06T01:13:10;6.80;99.90
25640;DHT22;13497;48.322;16.204;2024-03-06T01:15:37;6.80;99.90
25640;DHT22;13497;48.322;16.204;2024-03-06T01:18:03;6.90;99.90
25640;DHT22;13497;48.322;16.204;2024-03-06T01:20:29;6.90;99.90
25640;DHT22;13497;48.322;16.204;2024-03-06T01:22:54;6.90;99.90
25640;DHT22;13497;48.322;16.204;2024-03-06T01:25:20;6.90;99.90
25640;DHT22;13497;48.322;16.204;2024-03-06T01:27:48;6.80;99.90
25640;DHT22;13497;48.322;16.204;2024-03-06T01:30:14;6.80;99.90
25640;DHT22;13497;48.322;16.204;2024-03-06T01:32:40;6.90;99.90
25640;DHT22;13497;48.322;16.204;2024-03-06T01:35:06;7.00;99.90
25640;DHT22;13497;48.322;16.204;2024-03-06T01:37:32;7.00;99.90
25640;DHT22;13497;48.322;16.204;2024-03-06T01:39:58;6.90;99.90
25640;DHT22;13497;48.322;16.204;2024-03-06T01:42:24;6.90;99.90
25640;DHT22;13497;48.322;16.204;2024-03-06T01:44:50;6.80;99.90
25640;DHT22;13497;48.322;16.204;2024-03-06T01:47:15;6.80;99.90
25640;DHT22;13497;48.322;16.204;2024-03-06T01:49:42;6.70;99.90
25640;DHT22;13497;48.322;16.204;2024-03-06T01:52:10;6.80;99.90
25640;DHT22;13497;48.322;16.204;2024-03-06T01:54:38;6.80;99.90
25640;DHT22;13497;48.322;16.204;2024-03-06T01:57:04;6.80;99.90
25640;DHT22;13497;48.322;16.204;2024-03-06T01:59:32;6.80;99.90
25640;DHT22;13497;48.322;16.204;2024-03-06T02:01:58;6.80;99.90
25640;DHT22;13497;48.322;16.204;2024-03-06T02:04:24;6.80;99.90
25640;DHT22;13497;48.322;16.204;2024-03-06T02:06:53;6.90;99.90
25640;DHT22;13497;48.322;16.204;2024-03-06T02:09:19;7.00;99.90
25640;DHT22;13497;48.322;16.204;2024-03-06T02:11:45;7.00;99.90
25640;DHT22;13497;48.322;16.204;2024-03-06T02:14:11;6.90;99.90
25640;DHT22;13497;48.322;16.204;2024-03-06T02:16:38;6.90;99.90
25640;DHT22;13497;48.322;16.204;2024-03-06T02:19:07;7.00;99.90
25640;DHT22;13497;48.322;16.204;2024-03-06T02:21:33;7.00;99.90
25640;DHT22;13497;48.322;16.204;2024-03-06T02:23:59;7.00;99.90
25640;DHT22;13497;48.322;16.204;2024-03-06T02:26:25;7.00;99.90
25640;DHT22;13497;48.322;16.204;2024-03-06T02:28:54;7.00;99.90
25640;DHT22;13497;48.322;16.204;2024-03-06T02:31:21;6.90;99.90
25640;DHT22;13497;48.322;16.204;2024-03-06T02:33:48;6.90;99.90
25640;DHT22;13497;48.322;16.204;2024-03-06T02:36:15;6.90;99.90
25640;DHT22;13497;48.322;16.204;2024-03-06T02:38:42;6.90;99.90
25640;DHT22;13497;48.322;16.204;2024-03-06T02:41:09;7.00;99.90
25640;DHT22;13497;48.322;16.204;2024-03-06T02:43:34;7.10;99.90
25640;DHT22;13497;48.322;16.204;2024-03-06T02:46:00;7.00;99.90
25640;DHT22;13497;48.322;16.204;2024-03-06T02:48:26;7.00;99.90
25640;DHT22;13497;48.322;16.204;2024-03-06T02:50:52;6.90;99.90
25640;DHT22;13497;48.322;16.204;2024-03-06T02:53:17;6.90;99.90
25640;DHT22;13497;48.322;16.204;2024-03-06T02:55:43;7.00;99.90
25640;DHT22;13497;48.322;16.204;2024-03-06T02:58:09;7.00;99.90
25640;DHT22;13497;48.322;16.204;2024-03-06T03:00:35;7.00;99.90
25640;DHT22;13497;48.322;16.204;2024-03-06T03:03:00;7.10;99.90
25640;DHT22;13497;48.322;16.204;2024-03-06T03:05:26;7.10;99.90
25640;DHT22;13497;48.322;16.204;2024-03-06T03:07:52;7.10;99.90
25640;DHT22;13497;48.322;16.204;2024-03-06T03:10:18;7.10;99.90
25640;DHT22;13497;48.322;16.204;2024-03-06T03:12:44;7.10;99.90
25640;DHT22;13497;48.322;16.204;2024-03-06T03:15:10;7.10;99.90
25640;DHT22;13497;48.322;16.204;2024-03-06T03:17:36;7.10;99.90
25640;DHT22;13497;48.322;16.204;2024-03-06T03:20:04;7.10;99.90
25640;DHT22;13497;48.322;16.204;2024-03-06T03:22:43;7.20;99.90
25640;DHT22;13497;48.322;16.204;2024-03-06T03:25:12;7.10;99.90
25640;DHT22;13497;48.322;16.204;2024-03-06T03:27:39;7.00;99.90
25640;DHT22;13497;48.322;16.204;2024-03-06T03:30:12;6.90;99.90
25640;DHT22;13497;48.322;16.204;2024-03-06T03:32:38;6.90;99.90
25640;DHT22;13497;48.322;16.204;2024-03-06T03:35:07;6.90;99.90
25640;DHT22;13497;48.322;16.204;2024-03-06T03:37:33;6.90;99.90
25640;DHT22;13497;48.322;16.204;2024-03-06T03:39:59;6.90;99.90
25640;DHT22;13497;48.322;16.204;2024-03-06T03:42:25;6.90;99.90
25640;DHT22;13497;48.322;16.204;2024-03-06T03:44:51;6.90;99.90
25640;DHT22;13497;48.322;16.204;2024-03-06T03:47:17;6.90;99.90
25640;DHT22;13497;48.322;16.204;2024-03-06T03:49:43;7.00;99.90
25640;DHT22;13497;48.322;16.204;2024-03-06T03:52:08;7.00;99.90
25640;DHT22;13497;48.322;16.204;2024-03-06T03:54:34;7.00;99.90
25640;DHT22;13497;48.322;16.204;2024-03-06T03:57:01;7.00;99.90
25640;DHT22;13497;48.322;16.204;2024-03-06T03:59:26;7.00;99.90
25640;DHT22;13497;48.322;16.204;2024-03-06T04:01:52;7.10;99.90
25640;DHT22;13497;48.322;16.204;2024-03-06T04:04:18;7.10;99.90
25640;DHT22;13497;48.322;16.204;2024-03-06T04:06:44;7.10;99.90
25640;DHT22;13497;48.322;16.204;2024-03-06T04:09:10;7.00;99.90
25640;DHT22;13497;48.322;16.204;2024-03-06T04:11:37;6.90;99.90
25640;DHT22;13497;48.322;16.204;2024-03-06T04:14:03;6.90;99.90
25640;DHT22;13497;48.322;16.204;2024-03-06T04:16:29;6.90;99.90
25640;DHT22;13497;48.322;16.204;2024-03-06T04:18:55;6.80;99.90
25640;DHT22;13497;48.322;16.204;2024-03-06T04:21:20;6.80;99.90
25640;DHT22;13497;48.322;16.204;2024-03-06T04:23:48;6.80;99.90
25640;DHT22;13497;48.322;16.204;2024-03-06T04:26:13;6.80;99.90
25640;DHT22;13497;48.322;16.204;2024-03-06T04:28:39;6.70;99.90
25640;DHT22;13497;48.322;16.204;2024-03-06T04:31:05;6.70;99.90
25640;DHT22;13497;48.322;16.204;2024-03-06T04:33:30;6.70;99.90
25640;DHT22;13497;48.322;16.204;2024-03-06T04:35:56;6.60;99.90
25640;DHT22;13497;48.322;16.204;2024-03-06T04:38:22;6.60;99.90
25640;DHT22;13497;48.322;16.204;2024-03-06T04:40:47;6.60;99.90
25640;DHT22;13497;48.322;16.204;2024-03-06T04:43:13;6.50;99.90
25640;DHT22;13497;48.322;16.204;2024-03-06T04:45:39;6.50;99.90
25640;DHT22;13497;48.322;16.204;2024-03-06T04:48:05;6.50;99.90
25640;DHT22;13497;48.322;16.204;2024-03-06T04:50:31;6.50;99.90
25640;DHT22;13497;48.322;16.204;2024-03-06T04:52:58;6.40;99.90
25640;DHT22;13497;48.322;16.204;2024-03-06T04:55:23;6.30;99.90
25640;DHT22;13497;48.322;16.204;2024-03-06T04:57:51;6.10;99.90
25640;DHT22;13497;48.322;16.204;2024-03-06T05:00:18;6.10;99.90
25640;DHT22;13497;48.322;16.204;2024-03-06T05:02:44;6.00;99.90
25640;DHT22;13497;48.322;16.204;2024-03-06T05:05:09;5.90;99.90
25640;DHT22;13497;48.322;16.204;2024-03-06T05:07:35;5.80;99.90
25640;DHT22;13497;48.322;16.204;2024-03-06T05:10:01;5.80;99.90
25640;DHT22;13497;48.322;16.204;2024-03-06T05:12:27;5.70;99.90
25640;DHT22;13497;48.322;16.204;2024-03-06T05:14:55;5.70;99.90
25640;DHT22;13497;48.322;16.204;2024-03-06T05:17:21;5.70;99.90
25640;DHT22;13497;48.322;16.204;2024-03-06T05:19:47;5.60;99.90
25640;DHT22;13497;48.322;16.204;2024-03-06T05:22:13;5.60;99.90
25640;DHT22;13497;48.322;16.204;2024-03-06T05:24:39;5.60;99.90
25640;DHT22;13497;48.322;16.204;2024-03-06T05:27:05;5.60;99.90
25640;DHT22;13497;48.322;16.204;2024-03-06T05:29:31;5.60;99.90
25640;DHT22;13497;48.322;16.204;2024-03-06T05:31:57;5.50;99.90
25640;DHT22;13497;48.322;16.204;2024-03-06T05:34:22;5.50;99.90
25640;DHT22;13497;48.322;16.204;2024-03-06T05:36:49;5.50;99.90
25640;DHT22;13497;48.322;16.204;2024-03-06T05:39:14;5.50;99.90
25640;DHT22;13497;48.322;16.204;2024-03-06T05:41:41;5.60;99.90
25640;DHT22;13497;48.322;16.204;2024-03-06T05:44:07;5.60;99.90
25640;DHT22;13497;48.322;16.204;2024-03-06T05:46:33;5.60;99.90
25640;DHT22;13497;48.322;16.204;2024-03-06T05:48:58;5.50;99.90
25640;DHT22;13497;48.322;16.204;2024-03-06T05:51:24;5.50;99.90
25640;DHT22;13497;48.322;16.204;2024-03-06T05:53:50;5.60;99.90
25640;DHT22;13497;48.322;16.204;2024-03-06T05:56:18;5.60;99.90
25640;DHT22;13497;48.322;16.204;2024-03-06T05:58:44;5.60;99.90
25640;DHT22;13497;48.322;16.204;2024-03-06T06:01:16;5.60;99.90
25640;DHT22;13497;48.322;16.204;2024-03-06T06:03:48;5.70;99.90
25640;DHT22;13497;48.322;16.204;2024-03-06T06:06:17;5.80;99.90
25640;DHT22;13497;48.322;16.204;2024-03-06T06:08:46;5.70;99.90
25640;DHT22;13497;48.322;16.204;2024-03-06T06:11:12;5.80;99.90
25640;DHT22;13497;48.322;16.204;2024-03-06T06:13:38;5.80;99.90
25640;DHT22;13497;48.322;16.204;2024-03-06T06:16:07;5.90;99.90
25640;DHT22;13497;48.322;16.204;2024-03-06T06:18:33;5.90;99.90
25640;DHT22;13497;48.322;16.204;2024-03-06T06:20:59;6.00;99.90
25640;DHT22;13497;48.322;16.204;2024-03-06T06:23:25;6.00;99.90
25640;DHT22;13497;48.322;16.204;2024-03-06T06:25:51;6.00;99.90
25640;DHT22;13497;48.322;16.204;2024-03-06T06:28:17;6.00;99.90
25640;DHT22;13497;48.322;16.204;2024-03-06T06:30:42;6.10;99.90
25640;DHT22;13497;48.322;16.204;2024-03-06T06:33:08;6.10;99.90
25640;DHT22;13497;48.322;16.204;2024-03-06T06:35:34;6.20;99.90
25640;DHT22;13497;48.322;16.204;2024-03-06T06:38:00;6.10;99.90
25640;DHT22;13497;48.322;16.204;2024-03-06T06:40:26;6.20;99.90
25640;DHT22;13497;48.322;16.204;2024-03-06T06:42:54;6.30;99.90
25640;DHT22;13497;48.322;16.204;2024-03-06T06:45:20;6.40;99.90
25640;DHT22;13497;48.322;16.204;2024-03-06T06:47:48;6.50;99.90
25640;DHT22;13497;48.322;16.204;2024-03-06T06:50:14;6.60;99.90
25640;DHT22;13497;48.322;16.204;2024-03-06T06:52:43;6.60;99.90
25640;DHT22;13497;48.322;16.204;2024-03-06T06:55:09;6.60;99.90
25640;DHT22;13497;48.322;16.204;2024-03-06T06:57:37;6.60;99.90
25640;DHT22;13497;48.322;16.204;2024-03-06T07:00:03;6.60;99.90
25640;DHT22;13497;48.322;16.204;2024-03-06T07:02:39;6.80;99.90
25640;DHT22;13497;48.322;16.204;2024-03-06T07:05:05;6.90;99.90
25640;DHT22;13497;48.322;16.204;2024-03-06T07:07:31;6.90;99.90
25640;DHT22;13497;48.322;16.204;2024-03-06T07:09:57;7.00;99.90
25640;DHT22;13497;48.322;16.204;2024-03-06T07:12:23;7.10;99.90
25640;DHT22;13497;48.322;16.204;2024-03-06T07:14:48;7.20;99.90
25640;DHT22;13497;48.322;16.204;2024-03-06T07:17:14;7.20;99.90
25640;DHT22;13497;48.322;16.204;2024-03-06T07:19:39;7.30;99.90
25640;DHT22;13497;48.322;16.204;2024-03-06T07:22:05;7.30;99.90
25640;DHT22;13497;48.322;16.204;2024-03-06T07:24:31;7.30;99.90
25640;DHT22;13497;48.322;16.204;2024-03-06T07:26:57;7.40;99.90
25640;DHT22;13497;48.322;16.204;2024-03-06T07:29:22;7.50;99.90
25640;DHT22;13497;48.322;16.204;2024-03-06T07:31:48;7.60;99.90
25640;DHT22;13497;48.322;16.204;2024-03-06T07:34:14;7.60;99.90
25640;DHT22;13497;48.322;16.204;2024-03-06T07:36:40;7.60;99.90
25640;DHT22;13497;48.322;16.204;2024-03-06T07:39:06;7.70;99.90
25640;DHT22;13497;48.322;16.204;2024-03-06T07:41:32;7.70;99.90
25640;DHT22;13497;48.322;16.204;2024-03-06T07:43:59;7.70;99.90
25640;DHT22;13497;48.322;16.204;2024-03-06T07:46:25;7.70;99.90
25640;DHT22;13497;48.322;16.204;2024-03-06T07:48:51;7.90;99.90
25640;DHT22;13497;48.322;16.204;2024-03-06T07:51:17;8.00;99.90
25640;DHT22;13497;48.322;16.204;2024-03-06T07:53:43;8.10;99.90
25640;DHT22;13497;48.322;16.204;2024-03-06T07:56:12;8.10;99.90
25640;DHT22;13497;48.322;16.204;2024-03-06T07:58:39;8.10;99.90
25640;DHT22;13497;48.322;16.204;2024-03-06T08:01:06;8.00;99.90
25640;DHT22;13497;48.322;16.204;2024-03-06T08:03:33;8.00;99.90
25640;DHT22;13497;48.322;16.204;2024-03-06T08:05:59;8.10;99.90
25640;DHT22;13497;48.322;16.204;2024-03-06T08:08:25;8.20;99.90
25640;DHT22;13497;48.322;16.204;2024-03-06T08:10:51;8.20;99.90
25640;DHT22;13497;48.322;16.204;2024-03-06T08:13:17;8.20;99.90
25640;DHT22;13497;48.322;16.204;2024-03-06T08:15:44;8.30;99.90
25640;DHT22;13497;48.322;16.204;2024-03-06T08:18:10;8.30;99.90
25640;DHT22;13497;48.322;16.204;2024-03-06T08:20:36;8.30;99.90
25640;DHT22;13497;48.322;16.204;2024-03-06T08:23:03;8.30;99.90
25640;DHT22;13497;48.322;16.204;2024-03-06T08:25:28;8.40;99.90
25640;DHT22;13497;48.322;16.204;2024-03-06T08:27:54;8.50;99.90
25640;DHT22;13497;48.322;16.204;2024-03-06T08:30:20;8.60;99.90
25640;DHT22;13497;48.322;16.204;2024-03-06T08:32:45;8.50;99.90
25640;DHT22;13497;48.322;16.204;2024-03-06T08:35:12;8.50;99.90
25640;DHT22;13497;48.322;16.204;2024-03-06T08:37:41;8.70;99.90
25640;DHT22;13497;48.322;16.204;2024-03-06T08:40:08;8.70;99.90
25640;DHT22;13497;48.322;16.204;2024-03-06T08:42:43;8.70;99.90
25640;DHT22;13497;48.322;16.204;2024-03-06T08:45:09;8.80;99.90
25640;DHT22;13497;48.322;16.204;2024-03-06T08:47:36;8.90;99.90
25640;DHT22;13497;48.322;16.204;2024-03-06T08:50:02;8.90;99.90
25640;DHT22;13497;48.322;16.204;2024-03-06T08:52:28;8.90;99.90
25640;DHT22;13497;48.322;16.204;2024-03-06T08:54:54;8.90;99.90
25640;DHT22;13497;48.322;16.204;2024-03-06T08:57:20;8.90;99.90
25640;DHT22;13497;48.322;16.204;2024-03-06T08:59:50;9.00;99.90
25640;DHT22;13497;48.322;16.204;2024-03-06T09:02:17;9.10;99.90
25640;DHT22;13497;48.322;16.204;2024-03-06T09:04:44;9.10;99.90
25640;DHT22;13497;48.322;16.204;2024-03-06T09:07:10;9.00;99.90
25640;DHT22;13497;48.322;16.204;2024-03-06T09:09:37;9.10;99.90
25640;DHT22;13497;48.322;16.204;2024-03-06T09:12:07;9.10;99.90
25640;DHT22;13497;48.322;16.204;2024-03-06T09:14:36;9.10;99.90
25640;DHT22;13497;48.322;16.204;2024-03-06T09:17:02;9.10;99.90
25640;DHT22;13497;48.322;16.204;2024-03-06T09:19:28;9.10;99.90
25640;DHT22;13497;48.322;16.204;2024-03-06T09:21:54;9.10;99.90
25640;DHT22;13497;48.322;16.204;2024-03-06T09:24:23;9.20;99.90
25640;DHT22;13497;48.322;16.204;2024-03-06T09:26:50;9.30;99.90
25640;DHT22;13497;48.322;16.204;2024-03-06T09:29:17;9.30;99.90
25640;DHT22;13497;48.322;16.204;2024-03-06T09:31:43;9.40;99.90
25640;DHT22;13497;48.322;16.204;2024-03-06T09:34:09;9.50;99.90
25640;DHT22;13497;48.322;16.204;2024-03-06T09:36:41;9.60;99.90
25640;DHT22;13497;48.322;16.204;2024-03-06T09:39:14;9.80;99.90
25640;DHT22;13497;48.322;16.204;2024-03-06T09:41:44;9.90;99.90
25640;DHT22;13497;48.322;16.204;2024-03-06T09:44:10;9.90;99.90
25640;DHT22;13497;48.322;16.204;2024-03-06T09:46:36;10.10;99.90
25640;DHT22;13497;48.322;16.204;2024-03-06T09:49:03;10.10;99.90
25640;DHT22;13497;48.322;16.204;2024-03-06T09:51:29;10.10;99.90
25640;DHT22;13497;48.322;16.204;2024-03-06T09:53:56;10.00;99.90
25640;DHT22;13497;48.322;16.204;2024-03-06T09:56:21;10.00;99.90
25640;DHT22;13497;48.322;16.204;2024-03-06T09:58:47;9.90;99.90
25640;DHT22;13497;48.322;16.204;2024-03-06T10:01:14;9.80;99.90
25640;DHT22;13497;48.322;16.204;2024-03-06T10:03:40;9.70;99.90
25640;DHT22;13497;48.322;16.204;2024-03-06T10:06:07;9.60;99.90
25640;DHT22;13497;48.322;16.204;2024-03-06T10:08:33;9.80;99.90
25640;DHT22;13497;48.322;16.204;2024-03-06T10:10:59;9.90;99.90
25640;DHT22;13497;48.322;16.204;2024-03-06T10:13:25;10.00;99.90
25640;DHT22;13497;48.322;16.204;2024-03-06T10:16:01;10.10;99.90
25640;DHT22;13497;48.322;16.204;2024-03-06T10:18:28;10.10;99.90
25640;DHT22;13497;48.322;16.204;2024-03-06T10:20:55;10.20;99.90
25640;DHT22;13497;48.322;16.204;2024-03-06T10:23:21;10.30;99.90
25640;DHT22;13497;48.322;16.204;2024-03-06T10:25:48;10.30;99.90
25640;DHT22;13497;48.322;16.204;2024-03-06T10:28:18;10.40;99.90
25640;DHT22;13497;48.322;16.204;2024-03-06T10:30:44;10.40;99.90
25640;DHT22;13497;48.322;16.204;2024-03-06T10:33:15;10.50;99.90
25640;DHT22;13497;48.322;16.204;2024-03-06T10:35:43;10.50;99.90
25640;DHT22;13497;48.322;16.204;2024-03-06T10:38:09;10.80;99.90
25640;DHT22;13497;48.322;16.204;2024-03-06T10:40:38;11.10;99.90
25640;DHT22;13497;48.322;16.204;2024-03-06T10:43:05;11.30;99.90
25640;DHT22;13497;48.322;16.204;2024-03-06T10:45:51;11.20;99.60
25640;DHT22;13497;48.322;16.204;2024-03-06T10:48:20;11.00;99.70
25640;DHT22;13497;48.322;16.204;2024-03-06T10:50:47;11.00;99.80
25640;DHT22;13497;48.322;16.204;2024-03-06T10:53:15;11.00;99.60
25640;DHT22;13497;48.322;16.204;2024-03-06T10:55:43;11.00;99.50
25640;DHT22;13497;48.322;16.204;2024-03-06T10:58:13;10.90;99.60
25640;DHT22;13497;48.322;16.204;2024-03-06T11:00:40;11.00;99.60
25640;DHT22;13497;48.322;16.204;2024-03-06T11:03:07;11.20;99.50
25640;DHT22;13497;48.322;16.204;2024-03-06T11:05:36;11.40;99.20
25640;DHT22;13497;48.322;16.204;2024-03-06T11:08:09;11.70;99.00
25640;DHT22;13497;48.322;16.204;2024-03-06T11:10:37;11.80;98.70
25640;DHT22;13497;48.322;16.204;2024-03-06T11:13:08;11.70;98.50
25640;DHT22;13497;48.322;16.204;2024-03-06T11:15:34;11.50;98.90
25640;DHT22;13497;48.322;16.204;2024-03-06T11:23:31;11.50;98.90
25640;DHT22;13497;48.322;16.204;2024-03-06T11:26:00;11.60;98.80
25640;DHT22;13497;48.322;16.204;2024-03-06T11:28:33;11.60;98.60
25640;DHT22;13497;48.322;16.204;2024-03-06T11:31:04;11.70;98.70
25640;DHT22;13497;48.322;16.204;2024-03-06T11:33:43;11.90;98.20
25640;DHT22;13497;48.322;16.204;2024-03-06T11:36:19;12.10;98.30
25640;DHT22;13497;48.322;16.204;2024-03-06T11:39:06;12.10;98.00
25640;DHT22;13497;48.322;16.204;2024-03-06T11:41:47;12.20;98.00
25640;DHT22;13497;48.322;16.204;2024-03-06T11:44:15;11.90;97.90
25640;DHT22;13497;48.322;16.204;2024-03-06T11:49:20;11.70;98.50
25640;DHT22;13497;48.322;16.204;2024-03-06T11:51:47;11.60;98.50
25640;DHT22;13497;48.322;16.204;2024-03-06T11:54:14;11.50;98.80
25640;DHT22;13497;48.322;16.204;2024-03-06T11:56:40;11.40;99.00
25640;DHT22;13497;48.322;16.204;2024-03-06T11:59:07;11.40;99.50
25640;DHT22;13497;48.322;16.204;2024-03-06T12:01:37;11.30;99.60
25640;DHT22;13497;48.322;16.204;2024-03-06T12:04:03;11.20;99.70
25640;DHT22;13497;48.322;16.204;2024-03-06T12:06:32;11.10;99.60
25640;DHT22;13497;48.322;16.204;2024-03-06T12:08:59;11.10;99.50
25640;DHT22;13497;48.322;16.204;2024-03-06T12:11:25;11.00;99.70
25640;DHT22;13497;48.322;16.204;2024-03-06T12:13:51;11.10;99.50
25640;DHT22;13497;48.322;16.204;2024-03-06T12:16:17;11.00;99.40
25640;DHT22;13497;48.322;16.204;2024-03-06T12:18:43;11.00;99.60
25640;DHT22;13497;48.322;16.204;2024-03-06T12:21:11;11.00;99.90
25640;DHT22;13497;48.322;16.204;2024-03-06T12:23:36;11.10;99.90
25640;DHT22;13497;48.322;16.204;2024-03-06T12:28:29;11.20;99.60
25640;DHT22;13497;48.322;16.204;2024-03-06T12:30:55;11.20;99.40
25640;DHT22;13497;48.322;16.204;2024-03-06T12:33:21;11.20;99.30
25640;DHT22;13497;48.322;16.204;2024-03-06T12:35:46;11.10;99.50
25640;DHT22;13497;48.322;16.204;2024-03-06T12:38:16;11.00;99.60
25640;DHT22;13497;48.322;16.204;2024-03-06T12:40:42;10.90;99.80
25640;DHT22;13497;48.322;16.204;2024-03-06T12:43:09;11.00;99.90
25640;DHT22;13497;48.322;16.204;2024-03-06T12:45:36;10.90;99.90
25640;DHT22;13497;48.322;16.204;2024-03-06T12:48:03;10.80;99.90
25640;DHT22;13497;48.322;16.204;2024-03-06T12:50:29;10.80;99.90
25640;DHT22;13497;48.322;16.204;2024-03-06T12:52:54;10.80;99.90
25640;DHT22;13497;48.322;16.204;2024-03-06T12:55:20;10.80;99.90
25640;DHT22;13497;48.322;16.204;2024-03-06T12:57:45;10.80;99.90
25640;DHT22;13497;48.322;16.204;2024-03-06T13:00:12;10.90;99.90
25640;DHT22;13497;48.322;16.204;2024-03-06T13:02:44;10.80;99.90
25640;DHT22;13497;48.322;16.204;2024-03-06T13:05:10;10.80;99.80
25640;DHT22;13497;48.322;16.204;2024-03-06T13:07:36;10.80;99.90
25640;DHT22;13497;48.322;16.204;2024-03-06T13:10:05;10.80;99.90
25640;DHT22;13497;48.322;16.204;2024-03-06T13:12:31;10.90;99.90
25640;DHT22;13497;48.322;16.204;2024-03-06T13:14:57;10.90;99.90
25640;DHT22;13497;48.322;16.204;2024-03-06T13:17:22;11.00;99.70
25640;DHT22;13497;48.322;16.204;2024-03-06T13:19:48;11.00;99.40
25640;DHT22;13497;48.322;16.204;2024-03-06T13:22:14;11.00;99.40
25640;DHT22;13497;48.322;16.204;2024-03-06T13:24:40;10.90;99.10
25640;DHT22;13497;48.322;16.204;2024-03-06T13:27:06;10.90;99.30
25640;DHT22;13497;48.322;16.204;2024-03-06T13:29:31;11.00;99.10
25640;DHT22;13497;48.322;16.204;2024-03-06T13:31:57;11.00;99.00
25640;DHT22;13497;48.322;16.204;2024-03-06T13:34:23;11.00;99.20
25640;DHT22;13497;48.322;16.204;2024-03-06T13:36:48;10.90;99.20
25640;DHT22;13497;48.322;16.204;2024-03-06T13:39:14;10.80;99.30
25640;DHT22;13497;48.322;16.204;2024-03-06T13:41:43;10.70;99.50
25640;DHT22;13497;48.322;16.204;2024-03-06T13:44:08;10.80;99.40
25640;DHT22;13497;48.322;16.204;2024-03-06T13:46:34;10.80;99.30
25640;DHT22;13497;48.322;16.204;2024-03-06T13:49:00;10.80;99.40
25640;DHT22;13497;48.322;16.204;2024-03-06T13:51:26;10.80;99.30
25640;DHT22;13497;48.322;16.204;2024-03-06T13:53:51;10.90;99.30
25640;DHT22;13497;48.322;16.204;2024-03-06T13:56:17;10.90;99.30
25640;DHT22;13497;48.322;16.204;2024-03-06T13:58:43;10.80;99.20
25640;DHT22;13497;48.322;16.204;2024-03-06T14:01:09;10.80;99.40
25640;DHT22;13497;48.322;16.204;2024-03-06T14:03:35;10.70;99.60
25640;DHT22;13497;48.322;16.204;2024-03-06T14:06:03;10.80;99.50
25640;DHT22;13497;48.322;16.204;2024-03-06T14:08:29;10.90;99.50
25640;DHT22;13497;48.322;16.204;2024-03-06T14:10:55;10.90;99.10
25640;DHT22;13497;48.322;16.204;2024-03-06T14:13:20;10.90;99.30
25640;DHT22;13497;48.322;16.204;2024-03-06T14:15:46;10.90;99.50
25640;DHT22;13497;48.322;16.204;2024-03-06T14:18:13;11.00;99.60
25640;DHT22;13497;48.322;16.204;2024-03-06T14:20:39;10.90;99.50
25640;DHT22;13497;48.322;16.204;2024-03-06T14:23:05;10.90;99.50
25640;DHT22;13497;48.322;16.204;2024-03-06T14:25:30;10.90;99.60
25640;DHT22;13497;48.322;16.204;2024-03-06T14:28:00;11.00;99.50
25640;DHT22;13497;48.322;16.204;2024-03-06T14:30:26;11.00;99.60
25640;DHT22;13497;48.322;16.204;2024-03-06T14:32:53;10.90;99.50
25640;DHT22;13497;48.322;16.204;2024-03-06T14:35:18;10.90;99.30
25640;DHT22;13497;48.322;16.204;2024-03-06T14:37:44;10.90;99.30
25640;DHT22;13497;48.322;16.204;2024-03-06T14:40:10;10.90;99.50
25640;DHT22;13497;48.322;16.204;2024-03-06T14:42:36;11.00;99.30
25640;DHT22;13497;48.322;16.204;2024-03-06T14:45:01;11.00;99.20
25640;DHT22;13497;48.322;16.204;2024-03-06T14:47:31;10.90;99.40
25640;DHT22;13497;48.322;16.204;2024-03-06T14:49:57;10.80;99.30
25640;DHT22;13497;48.322;16.204;2024-03-06T14:52:23;10.60;99.50
25640;DHT22;13497;48.322;16.204;2024-03-06T14:54:49;10.60;99.60
25640;DHT22;13497;48.322;16.204;2024-03-06T14:57:14;10.60;99.60
25640;DHT22;13497;48.322;16.204;2024-03-06T14:59:40;10.60;99.80
25640;DHT22;13497;48.322;16.204;2024-03-06T15:02:06;10.50;99.90
25640;DHT22;13497;48.322;16.204;2024-03-06T15:04:31;10.50;99.80
25640;DHT22;13497;48.322;16.204;2024-03-06T15:06:57;10.40;99.90
25640;DHT22;13497;48.322;16.204;2024-03-06T15:09:25;10.30;99.90
25640;DHT22;13497;48.322;16.204;2024-03-06T15:11:51;10.30;99.90
25640;DHT22;13497;48.322;16.204;2024-03-06T15:14:18;10.20;99.90
25640;DHT22;13497;48.322;16.204;2024-03-06T15:16:44;10.20;99.90
25640;DHT22;13497;48.322;16.204;2024-03-06T15:19:10;10.30;99.90
25640;DHT22;13497;48.322;16.204;2024-03-06T15:21:36;10.30;99.90
25640;DHT22;13497;48.322;16.204;2024-03-06T15:24:01;10.40;99.90
25640;DHT22;13497;48.322;16.204;2024-03-06T15:26:27;10.30;99.90
25640;DHT22;13497;48.322;16.204;2024-03-06T15:28:53;10.40;99.90
25640;DHT22;13497;48.322;16.204;2024-03-06T15:31:19;10.40;99.90